Time,TemperatureF,DewpointF,PressureIn,WindDirection,WindDirectionDegrees,WindSpeedMPH,WindSpeedGustMPH,Humidity,HourlyPrecipIn,Conditions,Clouds,dailyrainin,SolarRadiationWatts/m^2,SoftwareType,DateUTC
2013-06-16 00:03:00,48.5,30.7,29.87,WNW,293,7.0,14.0,50,0.00,,,0.00,0,WeatherCatV1.15B25,2013-06-16 07:03:00,
2013-06-16 00:08:00,48.6,30.8,29.87,West,279,9.0,14.0,50,0.00,,,0.00,0,WeatherCatV1.15B25,2013-06-16 07:08:00,
2013-06-16 00:13:00,48.5,31.2,29.87,West,277,6.0,12.0,51,0.00,,,0.00,0,WeatherCatV1.15B25,2013-06-16 07:13:00,
2013-06-16 00:18:00,48.2,31.4,29.85,WNW,283,5.0,11.0,52,0.00,,,0.00,0,WeatherCatV1.15B25,2013-06-16 07:18:00,
2013-06-16 00:23:00,47.7,30.9,29.85,WNW,283,10.0,14.0,52,0.00,,,0.00,0,WeatherCatV1.15B25,2013-06-16 07:23:00,
2013-06-16 00:28:00,47.6,31.3,29.85,West,276,6.0,10.0,53,0.00,,,0.00,0,WeatherCatV1.15B25,2013-06-16 07:28:00,
2013-06-16 00:33:00,47.3,31.5,29.87,WNW,293,5.0,10.0,54,0.00,,,0.00,0,WeatherCatV1.15B25,2013-06-16 07:33:00,
2013-06-16 00:38:00,47.1,31.8,29.87,WNW,293,5.0,6.0,55,0.00,,,0.00,0,WeatherCatV1.15B25,2013-06-16 07:38:00,
2013-06-16 00:43:00,47.0,31.7,29.87,NW,312,7.0,12.0,55,0.00,,,0.00,0,WeatherCatV1.15B25,2013-06-16 07:43:00,
2013-06-16 00:48:00,47.0,31.7,29.87,WNW,288,11.0,12.0,55,0.00,,,0.00,0,WeatherCatV1.15B25,2013-06-16 07:48:00,
2013-06-16 00:53:00,47.0,31.7,29.87,NW,309,10.0,16.0,55,0.00,,,0.00,0,WeatherCatV1.15B25,2013-06-16 07:53:00,
2013-06-16 00:58:00,47.0,31.7,29.87,WNW,288,7.0,12.0,55,0.00,,,0.00,0,WeatherCatV1.15B25,2013-06-16 07:58:00,
2013-06-16 01:03:00,46.8,31.9,29.86,WNW,288,9.0,13.0,56,0.00,,,0.00,0,WeatherCatV1.15B25,2013-06-16 08:03:00,
2013-06-16 01:08:00,46.7,31.4,29.86,WNW,293,5.0,10.0,55,0.00,,,0.00,0,WeatherCatV1.15B25,2013-06-16 08:08:00,
2013-06-16 01:13:00,46.7,31.4,29.86,WNW,288,3.0,6.0,55,0.00,,,0.00,0,WeatherCatV1.15B25,2013-06-16 08:13:00,
2013-06-16 01:18:00,46.4,31.6,29.87,WNW,299,10.0,13.0,56,0.00,,,0.00,0,WeatherCatV1.15B25,2013-06-16 08:18:00,
2013-06-16 01:23:00,46.4,30.7,29.87,West,271,3.0,8.0,54,0.00,,,0.00,0,WeatherCatV1.15B25,2013-06-16 08:23:00,
2013-06-16 01:28:00,46.1,31.3,29.87,WNW,288,2.0,6.0,56,0.00,,,0.00,0,WeatherCatV1.15B25,2013-06-16 08:28:00,
2013-06-16 01:33:00,46.0,30.7,29.89,WNW,293,5.0,8.0,55,0.00,,,0.00,0,WeatherCatV1.15B25,2013-06-16 08:33:00,
2013-06-16 01:38:00,46.1,28.5,29.89,WNW,293,6.0,11.0,50,0.00,,,0.00,0,WeatherCatV1.15B25,2013-06-16 08:38:00,
2013-06-16 01:43:00,46.8,27.1,29.89,North,355,2.0,10.0,46,0.00,,,0.00,0,WeatherCatV1.15B25,2013-06-16 08:43:00,
2013-06-16 01:48:00,47.0,28.8,29.87,NW,314,8.0,10.0,49,0.00,,,0.00,0,WeatherCatV1.15B25,2013-06-16 08:48:00,
2013-06-16 01:53:00,47.1,26.3,29.87,WNW,303,11.0,14.0,44,0.00,,,0.00,0,WeatherCatV1.15B25,2013-06-16 08:53:00,
2013-06-16 01:58:00,47.4,26.6,29.87,WNW,288,6.0,10.0,44,0.00,,,0.00,0,WeatherCatV1.15B25,2013-06-16 08:58:00,
2013-06-16 02:03:00,47.6,27.3,29.87,WNW,301,13.0,13.0,45,0.00,,,0.00,0,WeatherCatV1.15B25,2013-06-16 09:03:00,
2013-06-16 02:08:00,47.6,26.8,29.87,West,265,8.0,10.0,44,0.00,,,0.00,0,WeatherCatV1.15B25,2013-06-16 09:08:00,
2013-06-16 02:13:00,47.3,28.6,29.87,WNW,293,7.0,11.0,48,0.00,,,0.00,0,WeatherCatV1.15B25,2013-06-16 09:13:00,
2013-06-16 02:18:00,46.7,28.1,29.88,WNW,283,8.0,14.0,48,0.00,,,0.00,0,WeatherCatV1.15B25,2013-06-16 09:18:00,
2013-06-16 02:23:00,46.4,28.3,29.88,NW,309,10.0,11.0,49,0.00,,,0.00,0,WeatherCatV1.15B25,2013-06-16 09:23:00,
2013-06-16 02:28:00,46.1,28.5,29.88,WNW,288,7.0,11.0,50,0.00,,,0.00,0,WeatherCatV1.15B25,2013-06-16 09:28:00,
2013-06-16 02:33:00,45.7,28.6,29.90,WNW,288,10.0,11.0,51,0.00,,,0.00,0,WeatherCatV1.15B25,2013-06-16 09:33:00,
2013-06-16 02:38:00,45.2,28.2,29.90,WNW,293,5.0,11.0,51,0.00,,,0.00,0,WeatherCatV1.15B25,2013-06-16 09:38:00,
2013-06-16 02:43:00,45.1,27.6,29.90,WNW,299,9.0,14.0,50,0.00,,,0.00,0,WeatherCatV1.15B25,2013-06-16 09:43:00,
2013-06-16 02:48:00,44.9,27.9,29.89,WNW,300,12.0,12.0,51,0.00,,,0.00,0,WeatherCatV1.15B25,2013-06-16 09:48:00,
2013-06-16 02:53:00,44.8,28.3,29.89,WNW,293,11.0,12.0,52,0.00,,,0.00,0,WeatherCatV1.15B25,2013-06-16 09:53:00,
2013-06-16 02:58:00,44.6,28.1,29.89,NW,313,6.0,13.0,52,0.00,,,0.00,0,WeatherCatV1.15B25,2013-06-16 09:58:00,
2013-06-16 03:03:00,44.6,28.1,29.89,WNW,288,16.0,16.0,52,0.00,,,0.00,0,WeatherCatV1.15B25,2013-06-16 10:03:00,
2013-06-16 03:08:00,44.8,28.3,29.89,WNW,302,12.0,15.0,52,0.00,,,0.00,0,WeatherCatV1.15B25,2013-06-16 10:08:00,
2013-06-16 03:13:00,45.1,28.1,29.89,WNW,288,10.0,17.0,51,0.00,,,0.00,0,WeatherCatV1.15B25,2013-06-16 10:13:00,
2013-06-16 03:18:00,45.5,28.0,29.87,WNW,293,8.0,16.0,50,0.00,,,0.00,0,WeatherCatV1.15B25,2013-06-16 10:18:00,
2013-06-16 03:23:00,46.0,27.9,29.87,NW,306,12.0,12.0,49,0.00,,,0.00,0,WeatherCatV1.15B25,2013-06-16 10:23:00,
2013-06-16 03:28:00,46.2,27.6,29.87,WNW,299,7.0,14.0,48,0.00,,,0.00,0,WeatherCatV1.15B25,2013-06-16 10:28:00,
2013-06-16 03:33:00,46.4,27.3,29.88,NW,308,7.0,10.0,47,0.00,,,0.00,0,WeatherCatV1.15B25,2013-06-16 10:33:00,
2013-06-16 03:38:00,46.5,26.8,29.88,WNW,293,7.0,14.0,46,0.00,,,0.00,0,WeatherCatV1.15B25,2013-06-16 10:38:00,
2013-06-16 03:43:00,46.7,27.0,29.88,WNW,302,7.0,12.0,46,0.00,,,0.00,0,WeatherCatV1.15B25,2013-06-16 10:43:00,
2013-06-16 03:48:00,46.7,27.0,29.86,WNW,283,6.0,12.0,46,0.00,,,0.00,0,WeatherCatV1.15B25,2013-06-16 10:48:00,
2013-06-16 03:53:00,46.5,26.8,29.86,WNW,293,5.0,12.0,46,0.00,,,0.00,0,WeatherCatV1.15B25,2013-06-16 10:53:00,
2013-06-16 03:58:00,46.4,27.8,29.86,WNW,293,7.0,10.0,48,0.00,,,0.00,0,WeatherCatV1.15B25,2013-06-16 10:58:00,
2013-06-16 04:03:00,46.1,28.5,29.87,NW,306,7.0,10.0,50,0.00,,,0.00,0,WeatherCatV1.15B25,2013-06-16 11:03:00,
2013-06-16 04:08:00,45.7,27.6,29.87,WNW,299,6.0,11.0,49,0.00,,,0.00,0,WeatherCatV1.15B25,2013-06-16 11:08:00,
2013-06-16 04:13:00,45.4,28.8,29.87,NW,308,9.0,13.0,52,0.00,,,0.00,0,WeatherCatV1.15B25,2013-06-16 11:13:00,
2013-06-16 04:18:00,45.4,25.8,29.88,WNW,299,9.0,13.0,46,0.00,,,0.00,0,WeatherCatV1.15B25,2013-06-16 11:18:00,
2013-06-16 04:23:00,45.4,26.4,29.88,NW,307,6.0,11.0,47,0.00,,,0.00,0,WeatherCatV1.15B25,2013-06-16 11:23:00,
2013-06-16 04:28:00,45.4,25.8,29.88,NW,312,11.0,13.0,46,0.00,,,0.00,0,WeatherCatV1.15B25,2013-06-16 11:28:00,
2013-06-16 04:33:00,45.7,25.6,29.89,NW,316,13.0,15.0,45,0.00,,,0.00,0,WeatherCatV1.15B25,2013-06-16 11:33:00,
2013-06-16 04:38:00,46.0,23.0,29.89,WNW,297,11.0,14.0,40,0.00,,,0.00,0,WeatherCatV1.15B25,2013-06-16 11:38:00,
2013-06-16 04:43:00,46.4,22.8,29.89,West,276,10.0,14.0,39,0.00,,,0.00,0,WeatherCatV1.15B25,2013-06-16 11:43:00,
2013-06-16 04:48:00,46.5,24.1,29.89,WNW,283,10.0,12.0,41,0.00,,,0.00,0,WeatherCatV1.15B25,2013-06-16 11:48:00,
2013-06-16 04:53:00,46.2,23.8,29.89,WNW,288,9.0,11.0,41,0.00,,,0.00,0,WeatherCatV1.15B25,2013-06-16 11:53:00,
2013-06-16 04:58:00,45.7,25.6,29.89,WNW,288,10.0,12.0,45,0.00,,,0.00,0,WeatherCatV1.15B25,2013-06-16 11:58:00,
2013-06-16 05:03:00,45.4,25.3,29.89,WNW,288,6.0,9.0,45,0.00,,,0.00,0,WeatherCatV1.15B25,2013-06-16 12:03:00,
2013-06-16 05:08:00,44.9,26.9,29.89,NW,305,9.0,11.0,49,0.00,,,0.00,0,WeatherCatV1.15B25,2013-06-16 12:08:00,
2013-06-16 05:13:00,44.3,27.3,29.89,WNW,283,7.0,10.0,51,0.00,,,0.00,0,WeatherCatV1.15B25,2013-06-16 12:13:00,
2013-06-16 05:18:00,44.2,25.8,29.92,WNW,293,5.0,10.0,48,0.00,,,0.00,0,WeatherCatV1.15B25,2013-06-16 12:18:00,
2013-06-16 05:23:00,44.1,26.2,29.92,WNW,293,7.0,9.0,49,0.00,,,0.00,0,WeatherCatV1.15B25,2013-06-16 12:23:00,
2013-06-16 05:28:00,44.1,25.7,29.92,West,279,5.0,7.0,48,0.00,,,0.00,0,WeatherCatV1.15B25,2013-06-16 12:28:00,
2013-06-16 05:33:00,44.1,26.7,29.93,WNW,283,5.0,7.0,50,0.00,,,0.00,0,WeatherCatV1.15B25,2013-06-16 12:33:00,
2013-06-16 05:38:00,43.9,26.5,29.93,WNW,293,3.0,5.0,50,0.00,,,0.00,5,WeatherCatV1.15B25,2013-06-16 12:38:00,
2013-06-16 05:43:00,43.6,25.2,29.93,WNW,300,5.0,8.0,48,0.00,,,0.00,7,WeatherCatV1.15B25,2013-06-16 12:43:00,
2013-06-16 05:48:00,43.5,25.6,29.93,WNW,293,7.0,7.0,49,0.00,,,0.00,9,WeatherCatV1.15B25,2013-06-16 12:48:00,
2013-06-16 05:53:00,43.3,22.9,29.93,WNW,293,6.0,10.0,44,0.00,,,0.00,12,WeatherCatV1.15B25,2013-06-16 12:53:00,
2013-06-16 05:58:00,43.3,21.2,29.93,WNW,300,5.0,6.0,41,0.00,,,0.00,16,WeatherCatV1.15B25,2013-06-16 12:58:00,
2013-06-16 06:03:00,43.5,19.6,29.94,WNW,301,3.0,8.0,38,0.00,,,0.00,18,WeatherCatV1.15B25,2013-06-16 13:03:00,
2013-06-16 06:08:00,43.5,20.2,29.94,WNW,300,3.0,6.0,39,0.00,,,0.00,21,WeatherCatV1.15B25,2013-06-16 13:08:00,
2013-06-16 06:13:00,43.5,21.4,29.94,WNW,293,2.0,5.0,41,0.00,,,0.00,19,WeatherCatV1.15B25,2013-06-16 13:13:00,
2013-06-16 06:18:00,43.5,21.9,29.94,WNW,293,0.0,0.0,42,0.00,,,0.00,42,WeatherCatV1.15B25,2013-06-16 13:18:00,
2013-06-16 06:23:00,43.3,22.3,29.94,WNW,293,1.0,3.0,43,0.00,,,0.00,63,WeatherCatV1.15B25,2013-06-16 13:23:00,
2013-06-16 06:28:00,43.5,26.1,29.94,WNW,293,3.0,3.0,50,0.00,,,0.00,77,WeatherCatV1.15B25,2013-06-16 13:28:00,
2013-06-16 06:33:00,43.8,28.2,29.94,WNW,293,1.0,4.0,54,0.00,,,0.00,91,WeatherCatV1.15B25,2013-06-16 13:33:00,
2013-06-16 06:38:00,43.9,27.0,29.94,WNW,288,2.0,4.0,51,0.00,,,0.00,107,WeatherCatV1.15B25,2013-06-16 13:38:00,
2013-06-16 06:43:00,44.2,25.3,29.94,West,274,5.0,6.0,47,0.00,,,0.00,120,WeatherCatV1.15B25,2013-06-16 13:43:00,
2013-06-16 06:48:00,44.6,24.0,29.95,WNW,293,5.0,7.0,44,0.00,,,0.00,134,WeatherCatV1.15B25,2013-06-16 13:48:00,
2013-06-16 06:53:00,44.9,24.9,29.95,WNW,293,4.0,5.0,45,0.00,,,0.00,148,WeatherCatV1.15B25,2013-06-16 13:53:00,
2013-06-16 06:58:00,45.2,25.7,29.95,WNW,293,3.0,5.0,46,0.00,,,0.00,160,WeatherCatV1.15B25,2013-06-16 13:58:00,
2013-06-16 07:03:00,45.7,26.1,29.95,WNW,293,5.0,6.0,46,0.00,,,0.00,174,WeatherCatV1.15B25,2013-06-16 14:03:00,
2013-06-16 07:08:00,46.0,26.9,29.95,WNW,297,4.0,5.0,47,0.00,,,0.00,190,WeatherCatV1.15B25,2013-06-16 14:08:00,
2013-06-16 07:13:00,46.2,26.6,29.95,WNW,288,3.0,6.0,46,0.00,,,0.00,206,WeatherCatV1.15B25,2013-06-16 14:13:00,
2013-06-16 07:18:00,46.4,26.8,29.98,WNW,293,3.0,4.0,46,0.00,,,0.00,221,WeatherCatV1.15B25,2013-06-16 14:18:00,
2013-06-16 07:23:00,46.7,27.0,29.98,WNW,288,1.0,4.0,46,0.00,,,0.00,237,WeatherCatV1.15B25,2013-06-16 14:23:00,
2013-06-16 07:28:00,47.0,26.8,29.98,WNW,288,3.0,4.0,45,0.00,,,0.00,255,WeatherCatV1.15B25,2013-06-16 14:28:00,
2013-06-16 07:33:00,47.3,25.4,29.97,WNW,297,5.0,5.0,42,0.00,,,0.00,267,WeatherCatV1.15B25,2013-06-16 14:33:00,
2013-06-16 07:38:00,47.7,24.0,29.97,WNW,293,3.0,4.0,39,0.00,,,0.00,285,WeatherCatV1.15B25,2013-06-16 14:38:00,
2013-06-16 07:43:00,48.0,24.2,29.97,WNW,293,2.0,4.0,39,0.00,,,0.00,301,WeatherCatV1.15B25,2013-06-16 14:43:00,
2013-06-16 07:48:00,48.5,24.7,29.98,WNW,297,2.0,4.0,39,0.00,,,0.00,318,WeatherCatV1.15B25,2013-06-16 14:48:00,
2013-06-16 07:53:00,48.8,24.3,29.98,West,278,0.0,4.0,38,0.00,,,0.00,334,WeatherCatV1.15B25,2013-06-16 14:53:00,
2013-06-16 07:58:00,49.1,23.3,29.98,NW,316,2.0,6.0,36,0.00,,,0.00,352,WeatherCatV1.15B25,2013-06-16 14:58:00,
2013-06-16 08:03:00,49.4,23.6,29.97,WNW,283,5.0,5.0,36,0.00,,,0.00,367,WeatherCatV1.15B25,2013-06-16 15:03:00,
2013-06-16 08:08:00,49.6,25.0,29.97,West,274,4.0,4.0,38,0.00,,,0.00,381,WeatherCatV1.15B25,2013-06-16 15:08:00,
2013-06-16 08:13:00,49.9,24.0,29.97,West,274,3.0,3.0,36,0.00,,,0.00,396,WeatherCatV1.15B25,2013-06-16 15:13:00,
2013-06-16 08:18:00,50.2,24.9,30.01,WNW,288,1.0,6.0,37,0.00,,,0.00,415,WeatherCatV1.15B25,2013-06-16 15:18:00,
2013-06-16 08:23:00,50.4,23.1,30.01,WNW,299,5.0,7.0,34,0.00,,,0.00,432,WeatherCatV1.15B25,2013-06-16 15:23:00,
2013-06-16 08:28:00,50.5,24.6,30.01,WNW,293,5.0,6.0,36,0.00,,,0.00,448,WeatherCatV1.15B25,2013-06-16 15:28:00,
2013-06-16 08:33:00,50.8,24.1,30.00,WNW,288,6.0,6.0,35,0.00,,,0.00,464,WeatherCatV1.15B25,2013-06-16 15:33:00,
2013-06-16 08:38:00,51.0,25.7,30.00,WNW,300,6.0,6.0,37,0.00,,,0.00,480,WeatherCatV1.15B25,2013-06-16 15:38:00,
2013-06-16 08:43:00,51.3,24.6,30.00,WNW,293,6.0,8.0,35,0.00,,,0.00,494,WeatherCatV1.15B25,2013-06-16 15:43:00,
2013-06-16 08:48:00,51.6,24.9,30.00,NW,325,4.0,5.0,35,0.00,,,0.00,510,WeatherCatV1.15B25,2013-06-16 15:48:00,
2013-06-16 08:53:00,51.7,24.9,30.00,West,275,4.0,4.0,35,0.00,,,0.00,526,WeatherCatV1.15B25,2013-06-16 15:53:00,
2013-06-16 08:58:00,52.0,25.9,30.00,WNW,283,5.0,7.0,36,0.00,,,0.00,541,WeatherCatV1.15B25,2013-06-16 15:58:00,
2013-06-16 09:03:00,52.2,24.7,30.00,WNW,293,5.0,6.0,34,0.00,,,0.00,557,WeatherCatV1.15B25,2013-06-16 16:03:00,
2013-06-16 09:08:00,52.2,24.7,30.00,WNW,283,4.0,7.0,34,0.00,,,0.00,573,WeatherCatV1.15B25,2013-06-16 16:08:00,
2013-06-16 09:13:00,52.5,25.0,30.00,WNW,301,6.0,9.0,34,0.00,,,0.00,585,WeatherCatV1.15B25,2013-06-16 16:13:00,
2013-06-16 09:18:00,52.8,25.2,30.01,NW,315,6.0,9.0,34,0.00,,,0.00,601,WeatherCatV1.15B25,2013-06-16 16:18:00,
2013-06-16 09:23:00,53.1,26.2,30.01,WNW,293,4.0,8.0,35,0.00,,,0.00,615,WeatherCatV1.15B25,2013-06-16 16:23:00,
2013-06-16 09:28:00,53.3,24.9,30.01,WNW,283,10.0,10.0,33,0.00,,,0.00,633,WeatherCatV1.15B25,2013-06-16 16:28:00,
2013-06-16 09:33:00,53.6,23.7,30.02,WNW,301,3.0,10.0,31,0.00,,,0.00,645,WeatherCatV1.15B25,2013-06-16 16:33:00,
2013-06-16 09:38:00,54.1,24.1,30.02,WNW,283,4.0,8.0,31,0.00,,,0.00,659,WeatherCatV1.15B25,2013-06-16 16:38:00,
2013-06-16 09:43:00,54.5,24.5,30.02,WNW,293,7.0,9.0,31,0.00,,,0.00,673,WeatherCatV1.15B25,2013-06-16 16:43:00,
2013-06-16 09:48:00,55.0,22.5,30.00,West,263,7.0,7.0,28,0.00,,,0.00,687,WeatherCatV1.15B25,2013-06-16 16:48:00,
2013-06-16 09:53:00,55.3,21.9,30.00,WNW,288,4.0,11.0,27,0.00,,,0.00,701,WeatherCatV1.15B25,2013-06-16 16:53:00,
2013-06-16 09:58:00,55.7,17.5,30.00,WNW,303,4.0,11.0,22,0.00,,,0.00,714,WeatherCatV1.15B25,2013-06-16 16:58:00,
2013-06-16 10:03:00,56.0,18.7,30.01,NW,311,4.0,13.0,23,0.00,,,0.00,726,WeatherCatV1.15B25,2013-06-16 17:03:00,
2013-06-16 10:08:00,56.2,17.9,30.01,WNW,297,10.0,13.0,22,0.00,,,0.00,740,WeatherCatV1.15B25,2013-06-16 17:08:00,
2013-06-16 10:13:00,56.3,12.1,30.01,WNW,297,11.0,11.0,17,0.00,,,0.00,752,WeatherCatV1.15B25,2013-06-16 17:13:00,
2013-06-16 10:18:00,56.5,10.9,30.01,West,278,6.0,10.0,16,0.00,,,0.00,765,WeatherCatV1.15B25,2013-06-16 17:18:00,
2013-06-16 10:23:00,56.7,13.7,30.01,WNW,293,2.0,7.0,18,0.00,,,0.00,773,WeatherCatV1.15B25,2013-06-16 17:23:00,
2013-06-16 10:28:00,57.3,12.9,30.01,WNW,283,6.0,9.0,17,0.00,,,0.00,788,WeatherCatV1.15B25,2013-06-16 17:28:00,
2013-06-16 10:33:00,57.6,15.7,30.01,West,266,8.0,9.0,19,0.00,,,0.00,798,WeatherCatV1.15B25,2013-06-16 17:33:00,
2013-06-16 10:38:00,58.0,14.8,30.01,WNW,283,7.0,11.0,18,0.00,,,0.00,810,WeatherCatV1.15B25,2013-06-16 17:38:00,
2013-06-16 10:43:00,58.0,12.1,30.01,NW,306,10.0,17.0,16,0.00,,,0.00,821,WeatherCatV1.15B25,2013-06-16 17:43:00,
2013-06-16 10:48:00,58.1,13.5,30.00,NW,313,6.0,12.0,17,0.00,,,0.00,831,WeatherCatV1.15B25,2013-06-16 17:48:00,
2013-06-16 10:53:00,58.3,16.2,30.00,WNW,302,6.0,8.0,19,0.00,,,0.00,842,WeatherCatV1.15B25,2013-06-16 17:53:00,
2013-06-16 10:58:00,58.7,14.0,30.00,WNW,293,6.0,11.0,17,0.00,,,0.00,851,WeatherCatV1.15B25,2013-06-16 17:58:00,
2013-06-16 11:03:00,58.9,15.5,30.00,WSW,243,0.0,3.0,18,0.00,,,0.00,863,WeatherCatV1.15B25,2013-06-16 18:03:00,
2013-06-16 11:08:00,60.1,15.2,30.00,WNW,301,6.0,10.0,17,0.00,,,0.00,872,WeatherCatV1.15B25,2013-06-16 18:08:00,
2013-06-16 11:13:00,60.5,14.1,30.00,WNW,288,3.0,9.0,16,0.00,,,0.00,881,WeatherCatV1.15B25,2013-06-16 18:13:00,
2013-06-16 11:18:00,60.4,14.0,29.98,West,274,6.0,14.0,16,0.00,,,0.00,889,WeatherCatV1.15B25,2013-06-16 18:18:00,
2013-06-16 11:23:00,59.9,15.0,29.98,NW,320,7.0,11.0,17,0.00,,,0.00,898,WeatherCatV1.15B25,2013-06-16 18:23:00,
2013-06-16 11:28:00,59.6,16.1,29.98,NW,306,4.0,12.0,18,0.00,,,0.00,905,WeatherCatV1.15B25,2013-06-16 18:28:00,
2013-06-16 11:33:00,59.5,16.0,30.00,WNW,283,11.0,15.0,18,0.00,,,0.00,912,WeatherCatV1.15B25,2013-06-16 18:33:00,
2013-06-16 11:38:00,59.8,18.7,30.00,NW,305,10.0,14.0,20,0.00,,,0.00,919,WeatherCatV1.15B25,2013-06-16 18:38:00,
2013-06-16 11:43:00,60.1,20.0,30.00,WSW,253,7.0,17.0,21,0.00,,,0.00,926,WeatherCatV1.15B25,2013-06-16 18:43:00,
2013-06-16 11:48:00,60.2,17.8,30.00,NW,313,12.0,13.0,19,0.00,,,0.00,933,WeatherCatV1.15B25,2013-06-16 18:48:00,
2013-06-16 11:53:00,60.4,19.2,30.00,WNW,300,9.0,10.0,20,0.00,,,0.00,940,WeatherCatV1.15B25,2013-06-16 18:53:00,
2013-06-16 11:58:00,60.4,16.7,30.00,WSW,244,5.0,12.0,18,0.00,,,0.00,947,WeatherCatV1.15B25,2013-06-16 18:58:00,
2013-06-16 12:03:00,61.0,18.5,30.00,WNW,293,5.0,9.0,19,0.00,,,0.00,954,WeatherCatV1.15B25,2013-06-16 19:03:00,
2013-06-16 12:08:00,61.6,19.0,30.00,WNW,300,4.0,9.0,19,0.00,,,0.00,958,WeatherCatV1.15B25,2013-06-16 19:08:00,
2013-06-16 12:13:00,61.8,19.1,30.00,WNW,288,9.0,14.0,19,0.00,,,0.00,963,WeatherCatV1.15B25,2013-06-16 19:13:00,
2013-06-16 12:18:00,61.8,19.1,29.99,WNW,293,5.0,10.0,19,0.00,,,0.00,965,WeatherCatV1.15B25,2013-06-16 19:18:00,
2013-06-16 12:23:00,62.3,19.5,29.99,WNW,298,14.0,14.0,19,0.00,,,0.00,972,WeatherCatV1.15B25,2013-06-16 19:23:00,
2013-06-16 12:28:00,62.3,16.9,29.99,West,259,11.0,16.0,17,0.00,,,0.00,977,WeatherCatV1.15B25,2013-06-16 19:28:00,
2013-06-16 12:33:00,62.7,19.9,29.99,NW,310,9.0,13.0,19,0.00,,,0.00,979,WeatherCatV1.15B25,2013-06-16 19:33:00,
2013-06-16 12:38:00,62.3,18.3,29.99,North,359,4.0,14.0,18,0.00,,,0.00,983,WeatherCatV1.15B25,2013-06-16 19:38:00,
2013-06-16 12:43:00,62.1,18.1,29.99,North,349,12.0,20.0,18,0.00,,,0.00,986,WeatherCatV1.15B25,2013-06-16 19:43:00,
2013-06-16 12:48:00,62.0,18.0,29.99,WNW,301,9.0,16.0,18,0.00,,,0.00,986,WeatherCatV1.15B25,2013-06-16 19:48:00,
2013-06-16 12:53:00,62.3,18.3,29.99,WNW,293,16.0,16.0,18,0.00,,,0.00,988,WeatherCatV1.15B25,2013-06-16 19:53:00,
2013-06-16 12:58:00,62.1,18.1,29.99,WNW,283,8.0,20.0,18,0.00,,,0.00,988,WeatherCatV1.15B25,2013-06-16 19:58:00,
2013-06-16 13:03:00,61.8,16.5,29.99,WNW,302,5.0,18.0,17,0.00,,,0.00,990,WeatherCatV1.15B25,2013-06-16 20:03:00,
2013-06-16 13:08:00,61.5,17.6,29.99,WNW,297,8.0,15.0,18,0.00,,,0.00,990,WeatherCatV1.15B25,2013-06-16 20:08:00,
2013-06-16 13:13:00,61.6,20.1,29.99,SW,229,11.0,12.0,20,0.00,,,0.00,990,WeatherCatV1.15B25,2013-06-16 20:13:00,
2013-06-16 13:18:00,62.0,18.0,29.99,WNW,288,9.0,10.0,18,0.00,,,0.00,991,WeatherCatV1.15B25,2013-06-16 20:18:00,
2013-06-16 13:23:00,62.6,19.8,29.99,NNW,347,11.0,13.0,19,0.00,,,0.00,990,WeatherCatV1.15B25,2013-06-16 20:23:00,
2013-06-16 13:28:00,63.2,19.0,29.99,WNW,293,8.0,14.0,18,0.00,,,0.00,990,WeatherCatV1.15B25,2013-06-16 20:28:00,
2013-06-16 13:33:00,63.5,19.2,29.97,WSW,238,6.0,15.0,18,0.00,,,0.00,988,WeatherCatV1.15B25,2013-06-16 20:33:00,
2013-06-16 13:38:00,63.4,20.4,29.97,West,262,13.0,17.0,19,0.00,,,0.00,988,WeatherCatV1.15B25,2013-06-16 20:38:00,
2013-06-16 13:43:00,63.5,20.5,29.97,West,279,13.0,15.0,19,0.00,,,0.00,983,WeatherCatV1.15B25,2013-06-16 20:43:00,
2013-06-16 13:48:00,63.2,20.3,29.98,NNW,339,9.0,13.0,19,0.00,,,0.00,981,WeatherCatV1.15B25,2013-06-16 20:48:00,
2013-06-16 13:53:00,63.5,21.7,29.98,NW,318,4.0,16.0,20,0.00,,,0.00,976,WeatherCatV1.15B25,2013-06-16 20:53:00,
2013-06-16 13:58:00,63.7,21.9,29.98,WNW,293,20.0,23.0,20,0.00,,,0.00,969,WeatherCatV1.15B25,2013-06-16 20:58:00,
2013-06-16 14:03:00,62.7,22.2,29.97,WNW,298,15.0,17.0,21,0.00,,,0.00,969,WeatherCatV1.15B25,2013-06-16 21:03:00,
2013-06-16 14:08:00,62.7,23.3,29.97,WNW,283,14.0,19.0,22,0.00,,,0.00,962,WeatherCatV1.15B25,2013-06-16 21:08:00,
2013-06-16 14:13:00,62.6,25.3,29.97,West,276,13.0,15.0,24,0.00,,,0.00,958,WeatherCatV1.15B25,2013-06-16 21:13:00,
2013-06-16 14:18:00,63.2,25.8,29.98,WNW,293,11.0,16.0,24,0.00,,,0.00,951,WeatherCatV1.15B25,2013-06-16 21:18:00,
2013-06-16 14:23:00,62.7,26.4,29.98,NW,306,15.0,18.0,25,0.00,,,0.00,947,WeatherCatV1.15B25,2013-06-16 21:23:00,
2013-06-16 14:28:00,62.9,27.5,29.98,North,354,5.0,15.0,26,0.00,,,0.00,940,WeatherCatV1.15B25,2013-06-16 21:28:00,
2013-06-16 14:33:00,63.4,26.0,29.98,West,272,11.0,15.0,24,0.00,,,0.00,935,WeatherCatV1.15B25,2013-06-16 21:33:00,
2013-06-16 14:38:00,63.4,27.0,29.98,WNW,283,18.0,20.0,25,0.00,,,0.00,928,WeatherCatV1.15B25,2013-06-16 21:38:00,
2013-06-16 14:43:00,62.7,27.3,29.98,SW,217,14.0,23.0,26,0.00,,,0.00,921,WeatherCatV1.15B25,2013-06-16 21:43:00,
2013-06-16 14:48:00,62.6,27.2,29.97,West,268,12.0,17.0,26,0.00,,,0.00,912,WeatherCatV1.15B25,2013-06-16 21:48:00,
2013-06-16 14:53:00,62.9,27.5,29.97,WNW,288,18.0,21.0,26,0.00,,,0.00,905,WeatherCatV1.15B25,2013-06-16 21:53:00,
2013-06-16 14:58:00,62.6,28.2,29.97,WNW,301,19.0,25.0,27,0.00,,,0.00,900,WeatherCatV1.15B25,2013-06-16 21:58:00,
2013-06-16 15:03:00,62.7,28.2,29.98,West,269,18.0,18.0,27,0.00,,,0.00,891,WeatherCatV1.15B25,2013-06-16 22:03:00,
2013-06-16 15:08:00,63.1,29.5,29.98,WNW,283,5.0,21.0,28,0.00,,,0.00,879,WeatherCatV1.15B25,2013-06-16 22:08:00,
2013-06-16 15:13:00,63.2,29.6,29.98,WNW,299,19.0,23.0,28,0.00,,,0.00,879,WeatherCatV1.15B25,2013-06-16 22:13:00,
2013-06-16 15:18:00,62.9,29.3,29.97,NNW,336,9.0,22.0,28,0.00,,,0.00,721,WeatherCatV1.15B25,2013-06-16 22:18:00,
2013-06-16 15:23:00,63.2,28.7,29.97,NW,317,10.0,20.0,27,0.00,,,0.00,853,WeatherCatV1.15B25,2013-06-16 22:23:00,
2013-06-16 15:28:00,63.4,29.7,29.97,NW,306,22.0,24.0,28,0.00,,,0.00,842,WeatherCatV1.15B25,2013-06-16 22:28:00,
2013-06-16 15:33:00,62.9,28.4,29.97,WNW,293,16.0,20.0,27,0.00,,,0.00,833,WeatherCatV1.15B25,2013-06-16 22:33:00,
2013-06-16 15:38:00,62.4,28.9,29.97,NNW,334,17.0,21.0,28,0.00,,,0.00,824,WeatherCatV1.15B25,2013-06-16 22:38:00,
2013-06-16 15:43:00,62.7,29.1,29.97,West,269,19.0,24.0,28,0.00,,,0.00,814,WeatherCatV1.15B25,2013-06-16 22:43:00,
2013-06-16 15:48:00,62.4,28.0,29.97,NW,306,11.0,29.0,27,0.00,,,0.00,803,WeatherCatV1.15B25,2013-06-16 22:48:00,
2013-06-16 15:53:00,62.1,27.7,29.97,West,259,6.0,27.0,27,0.00,,,0.00,795,WeatherCatV1.15B25,2013-06-16 22:53:00,
2013-06-16 15:58:00,62.4,28.0,29.97,NW,312,17.0,18.0,27,0.00,,,0.00,780,WeatherCatV1.15B25,2013-06-16 22:58:00,
2013-06-16 16:03:00,62.7,29.1,29.97,WNW,288,7.0,22.0,28,0.00,,,0.00,766,WeatherCatV1.15B25,2013-06-16 23:03:00,
2013-06-16 16:08:00,62.4,28.0,29.97,WNW,303,13.0,18.0,27,0.00,,,0.00,758,WeatherCatV1.15B25,2013-06-16 23:08:00,
2013-06-16 16:13:00,62.4,28.0,29.97,West,278,13.0,23.0,27,0.00,,,0.00,744,WeatherCatV1.15B25,2013-06-16 23:13:00,
2013-06-16 16:18:00,62.4,28.9,29.97,WNW,288,11.0,17.0,28,0.00,,,0.00,735,WeatherCatV1.15B25,2013-06-16 23:18:00,
2013-06-16 16:23:00,62.6,29.0,29.97,WNW,283,13.0,20.0,28,0.00,,,0.00,717,WeatherCatV1.15B25,2013-06-16 23:23:00,
2013-06-16 16:28:00,62.3,27.9,29.97,NW,308,18.0,27.0,27,0.00,,,0.00,703,WeatherCatV1.15B25,2013-06-16 23:28:00,
2013-06-16 16:33:00,61.8,27.5,29.97,West,274,11.0,20.0,27,0.00,,,0.00,689,WeatherCatV1.15B25,2013-06-16 23:33:00,
2013-06-16 16:38:00,61.6,27.3,29.97,SW,226,15.0,26.0,27,0.00,,,0.00,677,WeatherCatV1.15B25,2013-06-16 23:38:00,
2013-06-16 16:43:00,61.6,26.4,29.97,NW,311,19.0,24.0,26,0.00,,,0.00,664,WeatherCatV1.15B25,2013-06-16 23:43:00,
2013-06-16 16:48:00,61.5,27.2,29.98,NW,307,24.0,28.0,27,0.00,,,0.00,650,WeatherCatV1.15B25,2013-06-16 23:48:00,
2013-06-16 16:53:00,61.2,27.0,29.98,WNW,283,13.0,30.0,27,0.00,,,0.00,638,WeatherCatV1.15B25,2013-06-16 23:53:00,
2013-06-16 16:58:00,61.3,27.9,29.98,West,261,11.0,20.0,28,0.00,,,0.00,624,WeatherCatV1.15B25,2013-06-16 23:58:00,
2013-06-16 17:03:00,61.8,28.4,29.99,NW,313,17.0,18.0,28,0.00,,,0.00,610,WeatherCatV1.15B25,2013-06-17 00:03:00,
2013-06-16 17:08:00,62.0,28.5,29.99,West,272,20.0,27.0,28,0.00,,,0.00,594,WeatherCatV1.15B25,2013-06-17 00:08:00,
2013-06-16 17:13:00,61.8,29.2,29.99,SW,230,14.0,23.0,29,0.00,,,0.00,582,WeatherCatV1.15B25,2013-06-17 00:13:00,
2013-06-16 17:18:00,62.0,30.2,29.99,WNW,293,15.0,22.0,30,0.00,,,0.00,566,WeatherCatV1.15B25,2013-06-17 00:18:00,
2013-06-16 17:23:00,62.0,29.4,29.99,WNW,283,14.0,19.0,29,0.00,,,0.00,550,WeatherCatV1.15B25,2013-06-17 00:23:00,
2013-06-16 17:28:00,61.5,28.1,29.99,NW,324,22.0,27.0,28,0.00,,,0.00,536,WeatherCatV1.15B25,2013-06-17 00:28:00,
2013-06-16 17:33:00,61.2,27.8,29.99,NW,322,16.0,24.0,28,0.00,,,0.00,522,WeatherCatV1.15B25,2013-06-17 00:33:00,
2013-06-16 17:38:00,60.9,27.6,29.99,WNW,300,15.0,24.0,28,0.00,,,0.00,503,WeatherCatV1.15B25,2013-06-17 00:38:00,
2013-06-16 17:43:00,60.9,27.6,29.99,West,278,15.0,23.0,28,0.00,,,0.00,487,WeatherCatV1.15B25,2013-06-17 00:43:00,
2013-06-16 17:48:00,60.7,28.3,30.01,WNW,283,20.0,30.0,29,0.00,,,0.00,475,WeatherCatV1.15B25,2013-06-17 00:48:00,
2013-06-16 17:53:00,60.7,28.3,30.01,WNW,301,22.0,24.0,29,0.00,,,0.00,459,WeatherCatV1.15B25,2013-06-17 00:53:00,
2013-06-16 17:58:00,60.7,26.5,30.01,WNW,303,20.0,29.0,27,0.00,,,0.00,441,WeatherCatV1.15B25,2013-06-17 00:58:00,
2013-06-16 18:03:00,60.5,27.2,30.01,NW,326,17.0,26.0,28,0.00,,,0.00,424,WeatherCatV1.15B25,2013-06-17 01:03:00,
2013-06-16 18:08:00,60.4,28.0,30.01,WNW,300,13.0,18.0,29,0.00,,,0.00,406,WeatherCatV1.15B25,2013-06-17 01:08:00,
2013-06-16 18:13:00,60.5,28.1,30.01,WNW,297,25.0,27.0,29,0.00,,,0.00,394,WeatherCatV1.15B25,2013-06-17 01:13:00,
2013-06-16 18:18:00,60.4,27.1,30.00,NNW,339,21.0,27.0,28,0.00,,,0.00,374,WeatherCatV1.15B25,2013-06-17 01:18:00,
2013-06-16 18:23:00,60.2,27.8,30.00,NW,314,22.0,28.0,29,0.00,,,0.00,357,WeatherCatV1.15B25,2013-06-17 01:23:00,
2013-06-16 18:28:00,60.2,28.7,30.00,WNW,297,17.0,26.0,30,0.00,,,0.00,341,WeatherCatV1.15B25,2013-06-17 01:28:00,
2013-06-16 18:33:00,59.8,29.9,30.01,NW,306,22.0,27.0,32,0.00,,,0.00,323,WeatherCatV1.15B25,2013-06-17 01:33:00,
2013-06-16 18:38:00,59.6,29.7,30.01,West,276,16.0,25.0,32,0.00,,,0.00,308,WeatherCatV1.15B25,2013-06-17 01:38:00,
2013-06-16 18:43:00,59.6,29.7,30.01,NW,307,19.0,27.0,32,0.00,,,0.00,290,WeatherCatV1.15B25,2013-06-17 01:43:00,
2013-06-16 18:48:00,59.3,29.4,30.00,NW,304,5.0,28.0,32,0.00,,,0.00,272,WeatherCatV1.15B25,2013-06-17 01:48:00,
2013-06-16 18:53:00,59.2,31.6,30.00,NW,316,19.0,25.0,35,0.00,,,0.00,255,WeatherCatV1.15B25,2013-06-17 01:53:00,
2013-06-16 18:58:00,58.9,30.6,30.00,WNW,288,18.0,29.0,34,0.00,,,0.00,241,WeatherCatV1.15B25,2013-06-17 01:58:00,
2013-06-16 19:03:00,58.9,30.6,30.01,WSW,255,17.0,24.0,34,0.00,,,0.00,225,WeatherCatV1.15B25,2013-06-17 02:03:00,
2013-06-16 19:08:00,58.7,31.1,30.01,NW,309,17.0,21.0,35,0.00,,,0.00,207,WeatherCatV1.15B25,2013-06-17 02:08:00,
2013-06-16 19:13:00,58.7,31.8,30.01,NW,321,18.0,18.0,36,0.00,,,0.00,190,WeatherCatV1.15B25,2013-06-17 02:13:00,
2013-06-16 19:18:00,58.7,32.5,29.97,WNW,283,14.0,23.0,37,0.00,,,0.00,174,WeatherCatV1.15B25,2013-06-17 02:18:00,
2013-06-16 19:23:00,58.4,32.9,29.97,WNW,297,22.0,22.0,38,0.00,,,0.00,158,WeatherCatV1.15B25,2013-06-17 02:23:00,
2013-06-16 19:28:00,58.3,33.5,29.97,WNW,283,14.0,21.0,39,0.00,,,0.00,142,WeatherCatV1.15B25,2013-06-17 02:28:00,
2013-06-16 19:33:00,58.0,32.5,29.99,WNW,288,23.0,24.0,38,0.00,,,0.00,128,WeatherCatV1.15B25,2013-06-17 02:33:00,
2013-06-16 19:38:00,57.6,32.8,29.99,NW,316,19.0,25.0,39,0.00,,,0.00,114,WeatherCatV1.15B25,2013-06-17 02:38:00,
2013-06-16 19:43:00,57.3,32.6,29.99,WNW,300,26.0,26.0,39,0.00,,,0.00,63,WeatherCatV1.15B25,2013-06-17 02:43:00,
2013-06-16 19:48:00,57.2,32.5,29.99,NW,306,18.0,20.0,39,0.00,,,0.00,21,WeatherCatV1.15B25,2013-06-17 02:48:00,
2013-06-16 19:53:00,56.9,32.2,29.99,WNW,288,14.0,32.0,39,0.00,,,0.00,21,WeatherCatV1.15B25,2013-06-17 02:53:00,
2013-06-16 19:58:00,56.6,32.6,29.99,WNW,299,17.0,20.0,40,0.00,,,0.00,18,WeatherCatV1.15B25,2013-06-17 02:58:00,
2013-06-16 20:03:00,56.5,32.5,29.99,West,279,20.0,24.0,40,0.00,,,0.00,23,WeatherCatV1.15B25,2013-06-17 03:03:00,
2013-06-16 20:08:00,56.2,32.8,29.99,WNW,299,15.0,26.0,41,0.00,,,0.00,37,WeatherCatV1.15B25,2013-06-17 03:08:00,
2013-06-16 20:13:00,55.9,33.1,29.99,WNW,302,20.0,21.0,42,0.00,,,0.00,16,WeatherCatV1.15B25,2013-06-17 03:13:00,
2013-06-16 20:18:00,55.6,33.5,29.97,West,278,14.0,24.0,43,0.00,,,0.00,19,WeatherCatV1.15B25,2013-06-17 03:18:00,
2013-06-16 20:23:00,55.4,33.3,29.97,West,276,19.0,19.0,43,0.00,,,0.00,7,WeatherCatV1.15B25,2013-06-17 03:23:00,
2013-06-16 20:28:00,55.1,32.4,29.97,NW,305,17.0,22.0,42,0.00,,,0.00,5,WeatherCatV1.15B25,2013-06-17 03:28:00,
2013-06-16 20:33:00,54.8,33.3,30.00,WNW,293,11.0,19.0,44,0.00,,,0.00,0,WeatherCatV1.15B25,2013-06-17 03:33:00,
2013-06-16 20:38:00,54.7,33.2,30.00,NNW,336,7.0,21.0,44,0.00,,,0.00,0,WeatherCatV1.15B25,2013-06-17 03:38:00,
2013-06-16 20:43:00,54.4,34.6,30.00,WNW,293,15.0,19.0,47,0.00,,,0.00,0,WeatherCatV1.15B25,2013-06-17 03:43:00,
2013-06-16 20:48:00,54.1,33.8,30.01,NW,312,9.0,18.0,46,0.00,,,0.00,0,WeatherCatV1.15B25,2013-06-17 03:48:00,
2013-06-16 20:53:00,53.8,33.0,30.01,WNW,301,9.0,13.0,45,0.00,,,0.00,0,WeatherCatV1.15B25,2013-06-17 03:53:00,
2013-06-16 20:58:00,53.6,33.3,30.01,NW,319,7.0,14.0,46,0.00,,,0.00,0,WeatherCatV1.15B25,2013-06-17 03:58:00,
2013-06-16 21:01:00,53.5,33.2,30.01,WNW,293,13.0,17.0,46,0.00,,,0.00,0,WeatherCatV1.15B25,2013-06-17 04:01:00,
2013-06-16 21:02:00,53.3,33.1,30.01,NNW,344,4.0,16.0,46,0.00,,,0.00,0,WeatherCatV1.15B25,2013-06-17 04:02:00,
2013-06-16 21:03:00,53.3,33.1,30.01,WNW,300,18.0,18.0,46,0.00,,,0.00,0,WeatherCatV1.15B25,2013-06-17 04:03:00,
2013-06-16 21:07:00,53.2,33.5,30.01,WNW,283,11.0,13.0,47,0.00,,,0.00,0,WeatherCatV1.15B25,2013-06-17 04:07:00,
2013-06-16 21:11:00,53.1,33.4,30.01,WNW,293,13.0,13.0,47,0.00,,,0.00,0,WeatherCatV1.15B25,2013-06-17 04:11:00,
2013-06-16 21:16:00,52.9,33.7,29.99,WNW,303,7.0,13.0,48,0.00,,,0.00,0,WeatherCatV1.15B25,2013-06-17 04:16:00,
2013-06-16 21:21:00,52.9,33.7,29.99,NW,304,9.0,17.0,48,0.00,,,0.00,0,WeatherCatV1.15B25,2013-06-17 04:21:00,
2013-06-16 21:26:00,52.8,33.7,29.99,WNW,297,10.0,15.0,48,0.00,,,0.00,0,WeatherCatV1.15B25,2013-06-17 04:26:00,
2013-06-16 21:31:00,52.8,33.7,30.00,NW,325,3.0,11.0,48,0.00,,,0.00,0,WeatherCatV1.15B25,2013-06-17 04:31:00,
2013-06-16 21:36:00,52.6,33.0,30.00,North,349,3.0,10.0,47,0.00,,,0.00,0,WeatherCatV1.15B25,2013-06-17 04:36:00,
2013-06-16 21:41:00,52.5,32.9,30.00,NNW,347,4.0,6.0,47,0.00,,,0.00,0,WeatherCatV1.15B25,2013-06-17 04:41:00,
2013-06-16 21:46:00,52.5,32.3,30.01,NW,313,9.0,10.0,46,0.00,,,0.00,0,WeatherCatV1.15B25,2013-06-17 04:46:00,
2013-06-16 21:51:00,52.3,32.1,30.01,NW,307,3.0,7.0,46,0.00,,,0.00,0,WeatherCatV1.15B25,2013-06-17 04:51:00,
2013-06-16 21:56:00,52.2,32.0,30.01,NNW,329,3.0,6.0,46,0.00,,,0.00,0,WeatherCatV1.15B25,2013-06-17 04:56:00,
2013-06-16 22:01:00,52.0,31.9,30.01,NW,318,4.0,6.0,46,0.00,,,0.00,0,WeatherCatV1.15B25,2013-06-17 05:01:00,
2013-06-16 22:06:00,51.9,31.8,30.01,NW,305,7.0,7.0,46,0.00,,,0.00,0,WeatherCatV1.15B25,2013-06-17 05:06:00,
2013-06-16 22:11:00,51.7,31.6,30.01,WNW,299,5.0,7.0,46,0.00,,,0.00,0,WeatherCatV1.15B25,2013-06-17 05:11:00,
2013-06-16 22:16:00,51.7,31.1,30.00,WNW,303,6.0,8.0,45,0.00,,,0.00,0,WeatherCatV1.15B25,2013-06-17 05:16:00,
2013-06-16 22:21:00,51.7,31.1,30.00,NW,305,4.0,10.0,45,0.00,,,0.00,0,WeatherCatV1.15B25,2013-06-17 05:21:00,
2013-06-16 22:26:00,51.9,31.2,30.00,WNW,293,5.0,6.0,45,0.00,,,0.00,0,WeatherCatV1.15B25,2013-06-17 05:26:00,
2013-06-16 22:31:00,51.9,30.7,30.00,West,277,7.0,7.0,44,0.00,,,0.00,0,WeatherCatV1.15B25,2013-06-17 05:31:00,
2013-06-16 22:36:00,51.9,30.7,30.00,WNW,288,8.0,8.0,44,0.00,,,0.00,0,WeatherCatV1.15B25,2013-06-17 05:36:00,
2013-06-16 22:41:00,51.7,30.5,30.00,WNW,288,4.0,10.0,44,0.00,,,0.00,0,WeatherCatV1.15B25,2013-06-17 05:41:00,
2013-06-16 22:46:00,51.6,31.0,30.00,WNW,293,4.0,6.0,45,0.00,,,0.00,0,WeatherCatV1.15B25,2013-06-17 05:46:00,
2013-06-16 22:51:00,51.3,31.2,30.00,WNW,283,5.0,7.0,46,0.00,,,0.00,0,WeatherCatV1.15B25,2013-06-17 05:51:00,
2013-06-16 22:56:00,51.0,31.0,30.00,WNW,300,5.0,7.0,46,0.00,,,0.00,0,WeatherCatV1.15B25,2013-06-17 05:56:00,
2013-06-16 23:01:00,50.7,31.2,30.00,WNW,283,4.0,7.0,47,0.00,,,0.00,0,WeatherCatV1.15B25,2013-06-17 06:01:00,
2013-06-16 23:06:00,50.5,31.0,30.00,WNW,293,5.0,9.0,47,0.00,,,0.00,0,WeatherCatV1.15B25,2013-06-17 06:06:00,
2013-06-16 23:11:00,50.4,30.9,30.00,WNW,303,6.0,10.0,47,0.00,,,0.00,0,WeatherCatV1.15B25,2013-06-17 06:11:00,
2013-06-16 23:16:00,50.2,31.3,30.00,WNW,283,7.0,10.0,48,0.00,,,0.00,0,WeatherCatV1.15B25,2013-06-17 06:16:00,
2013-06-16 23:21:00,50.2,31.3,30.00,NW,309,7.0,11.0,48,0.00,,,0.00,0,WeatherCatV1.15B25,2013-06-17 06:21:00,
2013-06-16 23:26:00,50.2,31.8,30.00,WNW,301,6.0,10.0,49,0.00,,,0.00,0,WeatherCatV1.15B25,2013-06-17 06:26:00,
2013-06-16 23:31:00,49.9,31.5,30.00,WNW,283,6.0,7.0,49,0.00,,,0.00,0,WeatherCatV1.15B25,2013-06-17 06:31:00,
2013-06-16 23:36:00,49.8,31.9,30.00,WNW,297,6.0,8.0,50,0.00,,,0.00,0,WeatherCatV1.15B25,2013-06-17 06:36:00,
2013-06-16 23:41:00,49.6,32.2,30.00,WNW,302,6.0,7.0,51,0.00,,,0.00,0,WeatherCatV1.15B25,2013-06-17 06:41:00,
2013-06-16 23:46:00,49.6,32.2,29.99,WNW,293,5.0,9.0,51,0.00,,,0.00,0,WeatherCatV1.15B25,2013-06-17 06:46:00,
2013-06-16 23:51:00,49.6,32.2,29.99,WNW,299,7.0,7.0,51,0.00,,,0.00,0,WeatherCatV1.15B25,2013-06-17 06:51:00,
2013-06-16 23:56:00,49.6,32.2,29.99,WNW,301,6.0,6.0,51,0.00,,,0.00,0,WeatherCatV1.15B25,2013-06-17 06:56:00,